Placerville, CA (95667)

12:00 PM PST on December 02, 2016 (GMT -0800)
Madrone Lane | | Change Station

Elev 2120 ft 38.75 °N, 120.79 °W | Updated 11 seconds ago

Clear
Clear
53.9 °F
Feels Like 53.9 °F
N
1.0
Wind Variable Wind from NE
Gusts 3.0 mph

Today
High -- | Low -- °F
--% Chance of Precip.
Yesterday
High -- | Low -- °F
Precip. -- in
Pressure 30.17 in
Visibility 9.0 miles
Clouds Clear
Dew Point 19 °F
Humidity 25%
Rainfall 0.00 in
Snow Depth Not available.
7:03 AM 4:41 PM
Waxing Crescent, 10% visible
METAR KPVF 021955Z AUTO 02006KT 9SM CLR 10/M10 A3017 RMK AO1
Pressure 30.17 in
Visibility 9.0 miles
Clouds Clear
Dew Point 19 °F
Humidity 25%
Rainfall 0.00 in
Snow Depth Not available.
7:03 AM 4:41 PM
Waxing Crescent, 10% visible
METAR KPVF 021955Z AUTO 02006KT 9SM CLR 10/M10 A3017 RMK AO1

10-Day Weather Forecast

Almanac

Astronomy

Dec. 02, 2016 Rise Set
Actual Time
Civil Twilight
Nautical Twilight
Astronomical Twilight
Moon
Length of Visible Light
Length of Day
Tomorrow will be .
, % of the Moon is Illuminated

Today's Extremes

State Highs State Lows

Community

WunderPhotos

Upload Photos

1,955,344 photos uploaded!

WunderBlog® & News

Nearby

Air Quality

  Air Quality AQ Index Pollutant
Not available.

Snow Depth

Station Depth Elevation

Earthquake Activity

City Distance Mag. Time & Date
Minimum magnitude displayed is 2.5.

Coastal Water Temperatures

Place Temperature

Stations

Nearby Weather Stations

Station Location Temp. Windchill Dew Point Humidity Wind Precip. Elev Updated Type
                   

Watches & Warnings

There are currently no watches in effect.